Time;durP1;ratioP1;P1;durP2;ratioP2;P2;SDS_P1;SDS_P2;PMS_P1;PMS_P2;Temp;Humidity;BMP_temperature;BMP_pressure;BME280_temperature;BME280_humidity;BME280_pressure;Samples;Min_cycle;Max_cycle;Signal;HPM_P1;HPM_P2
2023/07/22 00:01:09;;;;;;;;;8.00;6.33;;;;;20.13;37.84;101391.03;5022475;28;47200;-45
2023/07/22 00:03:34;;;;;;;;;5.00;5.00;;;;;20.10;38.28;101385.00;5022106;28;45232;-44
2023/07/22 00:06:03;;;;;;;;;9.00;5.00;;;;;20.07;38.00;101390.66;5021909;28;53379;-46
2023/07/22 00:08:29;;;;;;;;;7.00;6.00;;;;;20.05;38.21;101384.53;5022104;28;45626;-48
2023/07/22 00:10:54;;;;;;;;;7.00;5.67;;;;;20.00;38.76;101383.06;5022194;28;46401;-44
2023/07/22 00:13:20;;;;;;;;;5.33;5.00;;;;;20.00;38.21;101382.22;5019896;28;73044;-45
2023/07/22 00:15:45;;;;;;;;;7.00;7.00;;;;;19.98;38.88;101381.47;5022314;28;45219;-46
2023/07/22 00:18:10;;;;;;;;;4.00;4.00;;;;;19.96;38.69;101384.28;5021190;28;67199;-44
2023/07/22 00:20:35;;;;;;;;;6.00;5.00;;;;;19.94;38.36;101375.44;5020779;28;73773;-42
2023/07/22 00:23:01;;;;;;;;;4.00;4.00;;;;;19.92;38.82;101376.56;5020009;28;45309;-43
2023/07/22 00:25:27;;;;;;;;;5.33;5.33;;;;;19.91;38.53;101372.16;5020857;28;45380;-45
2023/07/22 00:27:52;;;;;;;;;5.67;5.00;;;;;19.90;38.66;101367.75;5021296;28;45545;-44
2023/07/22 00:30:17;;;;;;;;;5.67;4.00;;;;;19.89;38.43;101376.81;5020406;28;70074;-44
2023/07/22 00:32:43;;;;;;;;;9.00;4.33;;;;;19.86;39.02;101377.91;5021753;28;45399;-44
2023/07/22 00:35:11;;;;;;;;;7.33;6.00;;;;;19.86;38.98;101377.06;5021381;28;45412;-46
2023/07/22 00:37:37;;;;;;;;;7.67;7.33;;;;;19.84;38.97;101374.47;5021916;28;45302;-45
2023/07/22 00:40:06;;;;;;;;;6.00;6.00;;;;;19.81;39.00;101374.69;5021527;28;45313;-47
2023/07/22 00:42:32;;;;;;;;;9.33;7.00;;;;;19.77;39.23;101368.69;5021325;28;45334;-45
2023/07/22 00:44:57;;;;;;;;;4.00;4.00;;;;;19.75;39.18;101364.38;5021691;28;45436;-46
2023/07/22 00:47:23;;;;;;;;;8.00;5.67;;;;;19.73;39.34;101358.28;5021314;28;52642;-45
2023/07/22 00:49:49;;;;;;;;;6.67;6.00;;;;;19.71;39.05;101369.19;5020163;28;46296;-45
2023/07/22 00:52:14;;;;;;;;;6.33;5.33;;;;;19.69;38.94;101365.75;5020343;28;45534;-44
2023/07/22 00:54:40;;;;;;;;;6.00;5.67;;;;;19.67;39.41;101373.09;5019806;28;49735;-47
2023/07/22 00:57:06;;;;;;;;;6.00;6.00;;;;;19.64;39.77;101366.09;5021524;28;45432;-45
2023/07/22 00:59:32;;;;;;;;;5.00;5.00;;;;;19.61;39.36;101369.06;5021508;28;46351;-44
2023/07/22 01:01:57;;;;;;;;;7.00;7.00;;;;;19.60;39.04;101369.19;5021727;28;45355;-45
2023/07/22 01:04:23;;;;;;;;;7.00;7.00;;;;;19.59;39.36;101367.44;5020609;28;66237;-45
2023/07/22 01:06:49;;;;;;;;;5.67;5.33;;;;;19.56;39.74;101365.84;5021382;28;45317;-45
2023/07/22 01:09:15;;;;;;;;;5.00;4.67;;;;;19.54;39.71;101366.97;5019718;28;46224;-45
2023/07/22 01:11:40;;;;;;;;;7.67;4.00;;;;;19.51;39.68;101363.50;5020655;28;57086;-44
2023/07/22 01:14:06;;;;;;;;;6.33;5.00;;;;;19.50;39.70;101369.03;5020968;28;54883;-47
2023/07/22 01:16:32;;;;;;;;;8.00;5.00;;;;;19.47;39.56;101359.34;5020092;28;45506;-46
2023/07/22 01:18:57;;;;;;;;;5.33;5.33;;;;;19.44;39.13;101358.75;5020907;28;45411;-48
2023/07/22 01:21:23;;;;;;;;;7.67;6.00;;;;;19.40;39.62;101360.81;5021155;28;45463;-44
2023/07/22 01:23:49;;;;;;;;;4.00;4.00;;;;;19.37;39.70;101355.66;5019709;28;45337;-46
2023/07/22 01:26:14;;;;;;;;;4.67;4.67;;;;;19.30;39.86;101352.59;5020472;28;67624;-44
2023/07/22 01:28:40;;;;;;;;;7.33;5.67;;;;;19.26;39.75;101348.41;5020004;28;75228;-45
2023/07/22 01:31:05;;;;;;;;;7.00;7.00;;;;;19.25;40.05;101352.09;5020086;28;46889;-47
2023/07/22 01:33:31;;;;;;;;;4.67;3.00;;;;;19.21;40.61;101350.59;5020781;28;67881;-47
2023/07/22 01:35:57;;;;;;;;;8.33;6.67;;;;;19.12;40.17;101345.94;5021232;28;45261;-44
2023/07/22 01:38:22;;;;;;;;;6.33;6.33;;;;;19.10;40.69;101342.50;5019450;28;46881;-47
2023/07/22 01:40:47;;;;;;;;;9.00;8.00;;;;;19.10;40.38;101332.59;5002122;28;63096;-48
2023/07/22 01:43:13;;;;;;;;;8.67;7.00;;;;;19.10;40.25;101342.50;5020014;28;66498;-45
2023/07/22 01:45:39;;;;;;;;;7.00;7.00;;;;;19.10;40.68;101339.78;5020549;28;49875;-46
2023/07/22 01:48:06;;;;;;;;;9.33;6.33;;;;;19.09;40.62;101338.09;5020612;28;46276;-44
2023/07/22 01:50:31;;;;;;;;;7.00;7.00;;;;;19.09;40.94;101340.78;5020580;28;45343;-49
2023/07/22 01:52:56;;;;;;;;;8.33;8.00;;;;;19.07;40.64;101346.28;5020614;28;45407;-44
2023/07/22 01:55:22;;;;;;;;;6.00;6.00;;;;;19.05;41.02;101345.56;5010524;28;63653;-44
2023/07/22 01:57:48;;;;;;;;;8.00;8.00;;;;;19.01;41.17;101352.16;5018004;28;74538;-46
2023/07/22 02:00:14;;;;;;;;;9.67;8.00;;;;;18.96;40.92;101344.44;5020589;28;45470;-45
2023/07/22 02:02:41;;;;;;;;;5.67;5.33;;;;;18.96;40.82;101348.97;5019554;28;45399;-44
2023/07/22 02:05:06;;;;;;;;;11.67;9.00;;;;;18.94;40.84;101346.41;5020724;28;45285;-45
2023/07/22 02:07:32;;;;;;;;;8.00;7.00;;;;;18.93;40.96;101341.09;5020052;28;46032;-48
2023/07/22 02:09:58;;;;;;;;;5.33;5.33;;;;;18.92;41.04;101342.09;5019769;28;68569;-45
2023/07/22 02:12:23;;;;;;;;;8.00;8.00;;;;;18.91;40.92;101340.38;5020450;28;45293;-46
2023/07/22 02:14:48;;;;;;;;;9.00;8.67;;;;;18.89;41.00;101343.19;5019479;28;68082;-44
2023/07/22 02:17:13;;;;;;;;;10.33;8.33;;;;;18.87;41.58;101336.16;5019495;28;66364;-49
2023/07/22 02:19:39;;;;;;;;;7.00;6.00;;;;;18.85;41.15;101344.34;5019399;28;69167;-46
2023/07/22 02:22:04;;;;;;;;;7.67;6.67;;;;;18.83;41.46;101335.53;5019600;28;60326;-46
2023/07/22 02:24:30;;;;;;;;;7.33;7.33;;;;;18.81;41.36;101337.47;5020338;28;45370;-44
2023/07/22 02:26:56;;;;;;;;;5.33;5.33;;;;;18.79;41.68;101336.75;5018618;28;46035;-44
2023/07/22 02:29:21;;;;;;;;;1.00;1.00;;;;;18.78;41.89;101345.81;5019279;28;72519;-47
2023/07/22 02:31:46;;;;;;;;;7.00;6.00;;;;;18.73;41.92;101342.59;5019438;28;67353;-45
2023/07/22 02:34:12;;;;;;;;;6.00;6.00;;;;;18.67;42.22;101338.56;5018786;28;45505;-45
2023/07/22 02:36:37;;;;;;;;;7.00;5.67;;;;;18.64;42.33;101331.56;5019916;28;45424;-47
2023/07/22 02:39:03;;;;;;;;;7.67;7.33;;;;;18.62;42.51;101336.19;5019254;28;65428;-46
2023/07/22 02:41:28;;;;;;;;;6.67;6.67;;;;;18.61;42.69;101334.47;5020001;28;45345;-45
2023/07/22 02:43:54;;;;;;;;;8.33;5.33;;;;;18.60;42.93;101335.44;5020111;28;45387;-45
2023/07/22 02:46:19;;;;;;;;;8.67;8.00;;;;;18.60;42.71;101331.91;5019341;28;46529;-47
2023/07/22 02:48:44;;;;;;;;;10.00;8.00;;;;;18.59;42.70;101341.81;5018995;28;67931;-47
2023/07/22 02:51:10;;;;;;;;;7.00;6.33;;;;;18.59;42.97;101335.56;5018542;28;68866;-45
2023/07/22 02:53:36;;;;;;;;;8.33;8.00;;;;;18.57;43.11;101341.06;5018402;28;45590;-46
2023/07/22 02:56:02;;;;;;;;;8.33;8.00;;;;;18.57;43.12;101346.47;5010043;28;46048;-48
2023/07/22 02:58:28;;;;;;;;;8.33;8.33;;;;;18.55;42.92;101345.72;5018622;28;45421;-47
2023/07/22 03:00:53;;;;;;;;;8.00;6.67;;;;;18.52;43.16;101338.75;5019878;28;45227;-48
2023/07/22 03:03:18;;;;;;;;;8.00;8.00;;;;;18.51;42.97;101338.84;5019218;28;56679;-46
2023/07/22 03:05:44;;;;;;;;;8.67;7.00;;;;;18.48;43.17;101347.16;5019645;28;47036;-49
2023/07/22 03:08:09;;;;;;;;;7.33;7.33;;;;;18.45;43.19;101347.41;5019538;28;45313;-48
2023/07/22 03:10:35;;;;;;;;;9.67;9.67;;;;;18.42;43.48;101350.28;5019133;28;61154;-49
2023/07/22 03:13:03;;;;;;;;;10.00;10.00;;;;;18.39;43.54;101346.00;5018911;28;67685;-49
2023/07/22 03:15:29;;;;;;;;;9.33;8.67;;;;;18.38;43.46;101341.59;5019182;28;46501;-48
2023/07/22 03:17:59;;;;;;;;;8.33;7.67;;;;;18.37;43.78;101342.56;5019282;28;45421;-48
2023/07/22 03:20:25;;;;;;;;;6.33;6.33;;;;;18.33;43.56;101350.03;5019710;28;45452;-47
2023/07/22 03:22:50;;;;;;;;;10.67;7.67;;;;;18.30;43.48;101342.19;5019345;28;45439;-49
2023/07/22 03:25:19;;;;;;;;;8.00;8.00;;;;;18.28;43.63;101340.56;5018205;28;72838;-47
2023/07/22 03:27:44;;;;;;;;;7.00;7.00;;;;;18.27;44.08;101353.16;5017978;28;45498;-49
2023/07/22 03:30:15;;;;;;;;;9.33;7.00;;;;;18.25;43.77;101351.56;5018741;28;62216;-47
2023/07/22 03:32:42;;;;;;;;;10.67;10.00;;;;;18.24;43.87;101358.78;5019776;28;45512;-48
2023/07/22 03:35:11;;;;;;;;;9.33;8.33;;;;;18.22;43.89;101358.03;5020068;28;45541;-45
2023/07/22 03:37:37;;;;;;;;;11.67;8.33;;;;;18.19;44.26;101360.94;5019536;28;45383;-45
2023/07/22 03:40:07;;;;;;;;;7.00;7.00;;;;;18.16;44.26;101353.06;5019481;28;45285;-45
2023/07/22 03:42:34;;;;;;;;;6.67;6.67;;;;;18.13;44.02;101361.38;5019353;28;45304;-46
2023/07/22 03:44:59;;;;;;;;;8.67;8.67;;;;;18.10;44.17;101353.56;5018869;28;45566;-47
2023/07/22 03:47:24;;;;;;;;;12.00;10.00;;;;;18.09;44.18;101354.50;5019237;28;45274;-44
2023/07/22 03:49:50;;;;;;;;;8.33;7.33;;;;;18.08;44.23;101353.66;5017050;28;66521;-44
2023/07/22 03:52:18;;;;;;;;;10.00;9.00;;;;;18.06;44.37;101352.91;5019109;28;45358;-44
2023/07/22 03:54:43;;;;;;;;;9.33;8.33;;;;;18.05;44.21;101351.19;5005665;28;45230;-45
2023/07/22 03:57:09;;;;;;;;;8.67;8.67;;;;;18.01;44.34;101350.53;5019097;28;45346;-44
2023/07/22 03:59:34;;;;;;;;;9.00;8.00;;;;;17.98;44.60;101352.63;5018919;28;47677;-44
2023/07/22 04:01:59;;;;;;;;;8.67;8.67;;;;;17.95;44.56;101352.81;5018369;28;69240;-43
2023/07/22 04:04:24;;;;;;;;;7.67;7.33;;;;;17.95;44.88;101352.81;5021049;28;73461;-48
2023/07/22 04:06:50;;;;;;;;;7.00;6.00;;;;;17.93;44.45;101352.09;5021524;28;73621;-48
2023/07/22 04:09:15;;;;;;;;;11.00;8.00;;;;;17.89;44.86;101356.78;5022432;28;45422;-46
2023/07/22 04:11:40;;;;;;;;;9.33;7.00;;;;;17.87;44.87;101353.34;5021338;28;70542;-44
2023/07/22 04:14:06;;;;;;;;;8.00;8.00;;;;;17.85;44.90;101350.78;5022054;28;46070;-47
2023/07/22 04:16:31;;;;;;;;;11.00;10.00;;;;;17.84;44.86;101350.88;5022235;28;45382;-44
2023/07/22 04:18:57;;;;;;;;;11.00;9.33;;;;;17.83;44.74;101343.78;5021349;28;66287;-46
2023/07/22 04:21:22;;;;;;;;;6.67;6.00;;;;;17.82;44.96;101355.50;5022240;28;45411;-44
2023/07/22 04:23:49;;;;;;;;;9.67;9.67;;;;;17.79;44.72;101345.81;5021622;28;48511;-43
2023/07/22 04:26:14;;;;;;;;;8.33;7.33;;;;;17.74;44.93;101350.66;5022050;28;45368;-44
2023/07/22 04:28:39;;;;;;;;;7.00;7.00;;;;;17.76;44.97;101354.13;5021047;28;65575;-43
2023/07/22 04:31:05;;;;;;;;;9.33;9.33;;;;;17.77;44.91;101357.66;5021126;28;65805;-46
2023/07/22 04:33:31;;;;;;;;;10.00;8.67;;;;;17.78;44.75;101354.00;5021658;28;46081;-47
2023/07/22 04:35:58;;;;;;;;;9.00;9.00;;;;;17.77;44.81;101357.66;5021950;28;45446;-45
2023/07/22 04:38:23;;;;;;;;;9.67;9.00;;;;;17.76;44.84;101350.59;5021787;28;45310;-45
2023/07/22 04:40:48;;;;;;;;;11.00;10.00;;;;;17.77;44.65;101357.66;5021704;28;47389;-45
2023/07/22 04:43:14;;;;;;;;;5.00;5.00;;;;;17.78;45.00;101368.34;5021133;28;74589;-44
2023/07/22 04:45:42;;;;;;;;;9.67;9.67;;;;;17.78;44.47;101362.97;5021960;28;45451;-44
2023/07/22 04:48:07;;;;;;;;;10.33;9.00;;;;;17.79;44.65;101370.03;5022047;28;45336;-46
2023/07/22 04:50:33;;;;;;;;;7.33;7.33;;;;;17.77;44.64;101372.00;5021384;28;55706;-44
2023/07/22 04:52:59;;;;;;;;;11.67;9.00;;;;;17.79;44.35;101374.56;5021169;28;53001;-44
2023/07/22 04:55:26;;;;;;;;;12.67;9.67;;;;;17.79;44.54;101371.88;5019374;28;60126;-44
2023/07/22 04:57:51;;;;;;;;;8.00;7.00;;;;;17.81;44.70;101370.81;5008342;28;45359;-45
2023/07/22 05:00:16;;;;;;;;;8.33;5.67;;;;;17.85;44.33;101368.75;5021553;28;45407;-46
2023/07/22 05:02:48;;;;;;;;;7.33;7.33;;;;;17.88;44.20;101363.13;5021186;28;57019;-46
2023/07/22 05:05:14;;;;;;;;;8.00;8.00;;;;;17.94;44.59;101364.56;5020235;28;45470;-45
2023/07/22 05:07:40;;;;;;;;;8.00;8.00;;;;;18.00;44.09;101366.81;5019183;28;45447;-47
2023/07/22 05:10:07;;;;;;;;;11.33;9.67;;;;;18.00;44.19;101361.41;5021374;28;45415;-45
2023/07/22 05:12:32;;;;;;;;;14.67;11.33;;;;;18.01;44.32;101358.63;5021415;28;45364;-47
2023/07/22 05:14:57;;;;;;;;;10.67;10.00;;;;;18.07;44.30;101359.13;5020340;28;45293;-47
2023/07/22 05:17:23;;;;;;;;;8.67;8.00;;;;;18.12;44.32;101356.97;5021349;28;45515;-45
2023/07/22 05:19:48;;;;;;;;;8.33;8.00;;;;;18.20;44.28;101357.28;5020926;28;45417;-43
2023/07/22 05:22:14;;;;;;;;;10.00;9.67;;;;;18.27;44.21;101350.47;5020844;28;46257;-43
2023/07/22 05:24:39;;;;;;;;;9.00;8.33;;;;;18.35;44.15;101352.59;5021026;28;45182;-45
2023/07/22 05:27:05;;;;;;;;;8.33;6.00;;;;;18.40;44.42;101353.09;5021271;28;45647;-48
2023/07/22 05:29:30;;;;;;;;;8.00;8.00;;;;;18.47;43.92;101357.06;5021084;28;45239;-49
2023/07/22 05:31:56;;;;;;;;;15.67;9.00;;;;;18.53;44.07;101358.44;5019996;28;74658;-48
2023/07/22 05:34:21;;;;;;;;;13.00;9.00;;;;;18.61;43.91;101352.47;5019988;28;68708;-47
2023/07/22 05:36:46;;;;;;;;;8.00;7.00;;;;;18.67;43.74;101354.72;5020758;28;49223;-45
2023/07/22 05:39:12;;;;;;;;;9.00;9.00;;;;;18.75;43.80;101354.97;5020820;28;45618;-47
2023/07/22 05:41:37;;;;;;;;;9.33;8.00;;;;;18.82;43.44;101349.97;5018682;28;72276;-46
2023/07/22 05:44:03;;;;;;;;;12.00;10.67;;;;;18.82;43.70;101355.38;5019371;28;45366;-45
2023/07/22 05:46:28;;;;;;;;;9.33;8.67;;;;;18.81;43.56;101353.66;5020889;28;45408;-44
2023/07/22 05:48:53;;;;;;;;;8.00;7.33;;;;;18.85;43.56;101352.44;5020883;28;45372;-44
2023/07/22 05:51:19;;;;;;;;;10.33;8.67;;;;;18.91;43.69;101359.25;5007222;28;52248;-44
2023/07/22 05:53:44;;;;;;;;;8.67;8.00;;;;;18.98;43.42;101366.75;5018368;28;65546;-45
2023/07/22 05:56:09;;;;;;;;;11.67;9.00;;;;;19.10;43.42;101361.34;5019389;28;45490;-46
2023/07/22 05:58:35;;;;;;;;;8.33;8.00;;;;;19.21;42.93;101356.00;5020674;28;45542;-45
2023/07/22 06:01:00;;;;;;;;;10.00;10.00;;;;;19.31;42.87;101357.00;5019564;28;72051;-44
2023/07/22 06:03:26;;;;;;;;;8.00;6.67;;;;;19.32;42.85;101358.72;5020485;28;45455;-47
2023/07/22 06:05:51;;;;;;;;;7.67;7.67;;;;;19.40;42.97;101365.34;5019604;28;69767;-46
2023/07/22 06:08:16;;;;;;;;;9.33;7.67;;;;;19.50;42.89;101359.13;5020399;28;45432;-44
2023/07/22 06:10:42;;;;;;;;;9.67;9.67;;;;;19.63;42.92;101358.13;5019426;28;70823;-44
2023/07/22 06:13:07;;;;;;;;;11.67;11.33;;;;;19.78;42.87;101361.47;5020417;28;45205;-46
2023/07/22 06:15:33;;;;;;;;;9.33;7.67;;;;;19.92;42.81;101361.22;5020314;28;45499;-44
2023/07/22 06:17:59;;;;;;;;;9.67;9.33;;;;;20.06;42.63;101361.94;5020256;28;45506;-44
2023/07/22 06:20:24;;;;;;;;;5.00;4.33;;;;;20.10;42.38;101366.09;5020178;28;45336;-46
2023/07/22 06:22:49;;;;;;;;;9.67;9.00;;;;;20.12;42.48;101358.75;5019155;28;70088;-45
2023/07/22 06:25:15;;;;;;;;;11.00;10.00;;;;;20.17;43.61;101365.47;5019514;28;60637;-45
2023/07/22 06:27:40;;;;;;;;;10.00;10.00;;;;;20.26;42.71;101371.09;5018252;28;59179;-44
2023/07/22 06:30:06;;;;;;;;;11.00;11.00;;;;;20.39;42.59;101365.53;5018976;28;73387;-45
2023/07/22 06:32:31;;;;;;;;;8.67;8.67;;;;;20.53;43.01;101354.44;5019881;28;45372;-44
2023/07/22 06:34:57;;;;;;;;;9.67;9.00;;;;;20.64;42.71;101357.13;5019071;28;65104;-45
2023/07/22 06:37:23;;;;;;;;;10.00;10.00;;;;;20.82;42.77;101352.03;5019984;28;45404;-45
2023/07/22 06:39:49;;;;;;;;;9.33;8.00;;;;;21.06;42.25;101352.78;5019692;28;46411;-45
2023/07/22 06:42:14;;;;;;;;;7.33;6.00;;;;;22.72;42.22;101356.09;5019790;28;52923;-45
2023/07/22 06:44:40;;;;;;;;;7.00;7.00;;;;;24.85;39.30;101360.91;5020098;28;45391;-45
2023/07/22 06:47:05;;;;;;;;;13.00;10.67;;;;;26.93;37.09;101348.06;5018931;28;68446;-45
2023/07/22 06:49:31;;;;;;;;;14.00;12.00;;;;;28.52;34.80;101344.38;5019693;28;46000;-46
2023/07/22 06:51:56;;;;;;;;;11.00;10.00;;;;;30.01;31.01;101335.56;5019733;28;45391;-46
2023/07/22 06:54:21;;;;;;;;;10.67;10.33;;;;;31.13;30.65;101341.53;5018058;28;45482;-46
2023/07/22 06:56:47;;;;;;;;;11.00;9.67;;;;;31.93;29.71;101338.41;5010311;28;65637;-47
2023/07/22 06:59:12;;;;;;;;;7.00;7.00;;;;;32.44;29.31;101345.34;5018607;28;72807;-45
2023/07/22 07:01:37;;;;;;;;;13.33;11.00;;;;;32.26;28.47;101356.09;5019632;28;45309;-44
2023/07/22 07:04:03;;;;;;;;;10.33;9.00;;;;;31.32;28.62;101350.13;5019592;28;45786;-47
2023/07/22 07:06:29;;;;;;;;;10.00;10.00;;;;;30.67;29.44;101348.28;5019687;28;45495;-45
2023/07/22 07:08:55;;;;;;;;;8.00;7.67;;;;;30.28;30.01;101352.31;5019284;28;46179;-46
2023/07/22 07:11:20;;;;;;;;;9.00;9.00;;;;;30.19;30.02;101348.84;5018485;28;45374;-45
2023/07/22 07:13:45;;;;;;;;;10.33;6.67;;;;;30.67;30.17;101333.75;5017962;28;46520;-48
2023/07/22 07:16:21;;;;;;;;;10.00;8.67;;;;;31.53;29.32;101348.34;5019604;28;45289;-48
2023/07/22 07:18:47;;;;;;;;;9.00;8.33;;;;;31.84;27.92;101354.22;5019227;28;46247;-45
2023/07/22 07:21:12;;;;;;;;;12.00;10.00;;;;;31.11;29.03;101346.38;5018671;28;69759;-44
2023/07/22 07:23:37;;;;;;;;;11.00;8.00;;;;;30.67;27.86;101353.78;5018593;28;60393;-44
2023/07/22 07:26:03;;;;;;;;;8.00;8.00;;;;;30.35;28.50;101350.50;5017241;28;68644;-47
2023/07/22 07:28:28;;;;;;;;;12.00;10.00;;;;;30.20;28.65;101349.69;5018064;28;73209;-47
2023/07/22 07:30:53;;;;;;;;;10.67;8.67;;;;;30.36;29.23;101351.34;5018407;28;69229;-45
2023/07/22 07:33:19;;;;;;;;;7.33;7.33;;;;;30.42;29.27;101356.06;5017187;28;64104;-45
2023/07/22 07:35:47;;;;;;;;;8.00;8.00;;;;;29.95;29.24;101369.22;5017237;28;64027;-44
2023/07/22 07:38:12;;;;;;;;;9.67;9.67;;;;;28.93;30.00;101367.88;5019590;28;45514;-47
2023/07/22 07:40:38;;;;;;;;;7.33;7.33;;;;;27.86;30.89;101363.91;5020658;28;64395;-46
2023/07/22 07:43:03;;;;;;;;;8.33;8.33;;;;;27.15;32.10;101360.16;5022636;28;65815;-49
2023/07/22 07:45:29;;;;;;;;;10.00;10.00;;;;;27.70;32.08;101363.97;5022840;28;45632;-46
2023/07/22 07:47:54;;;;;;;;;10.67;8.00;;;;;29.25;31.22;101365.03;5021532;28;70982;-48
2023/07/22 07:50:20;;;;;;;;;4.33;4.00;;;;;30.25;29.45;101368.31;5022635;28;45360;-47
2023/07/22 07:52:45;;;;;;;;;10.00;10.00;;;;;30.74;29.53;101364.84;5021432;28;67344;-46
2023/07/22 07:55:10;;;;;;;;;8.33;8.33;;;;;31.97;27.47;101363.59;5013662;28;67624;-45
2023/07/22 07:57:36;;;;;;;;;7.33;6.33;;;;;32.99;26.34;101355.34;4999959;28;47492;-45
2023/07/22 08:00:03;;;;;;;;;8.33;6.67;;;;;33.24;25.94;101350.03;5013704;28;45498;-45
2023/07/22 08:02:28;;;;;;;;;11.00;9.00;;;;;32.49;25.90;101364.81;5022301;28;45411;-46
2023/07/22 08:04:53;;;;;;;;;6.33;6.33;;;;;32.19;26.46;101357.97;5020075;28;54193;-46
2023/07/22 08:07:19;;;;;;;;;10.00;10.00;;;;;32.37;25.54;101358.22;5021848;28;45826;-44
2023/07/22 08:09:48;;;;;;;;;9.00;8.33;;;;;32.70;25.69;101351.06;5022189;28;45303;-45
2023/07/22 08:12:14;;;;;;;;;11.00;11.00;;;;;33.19;25.60;101343.47;5022372;28;45289;-49
2023/07/22 08:14:39;;;;;;;;;10.33;9.33;;;;;34.38;25.31;101351.56;5021677;28;69546;-48
2023/07/22 08:17:05;;;;;;;;;8.33;8.33;;;;;35.36;24.08;101355.69;5020748;28;46915;-49
2023/07/22 08:19:30;;;;;;;;;8.00;7.00;;;;;35.51;23.08;101348.91;5021872;28;45390;-47
2023/07/22 08:21:55;;;;;;;;;6.00;6.00;;;;;34.41;23.22;101359.41;5021282;28;69307;-45
2023/07/22 08:24:21;;;;;;;;;8.00;8.00;;;;;33.47;24.42;101349.59;5021002;28;68581;-48
2023/07/22 08:26:46;;;;;;;;;10.00;8.00;;;;;33.42;24.13;101340.28;5020850;28;73774;-46
2023/07/22 08:29:11;;;;;;;;;10.67;8.00;;;;;32.54;25.27;101347.69;5021190;28;64597;-45
2023/07/22 08:31:37;;;;;;;;;9.00;9.00;;;;;31.94;25.39;101359.34;5022062;28;45955;-45
2023/07/22 08:34:02;;;;;;;;;9.33;7.33;;;;;31.76;25.81;101348.03;5021085;28;60248;-45
2023/07/22 08:36:27;;;;;;;;;12.00;10.33;;;;;31.42;26.28;101347.00;5021364;28;60605;-45
2023/07/22 08:38:53;;;;;;;;;6.33;6.33;;;;;31.01;25.99;101346.69;5020261;28;45372;-46
2023/07/22 08:41:18;;;;;;;;;6.67;6.67;;;;;30.74;26.69;101348.38;5020974;28;66599;-46
2023/07/22 08:43:46;;;;;;;;;7.67;7.67;;;;;30.94;26.45;101345.78;4999822;28;67094;-46
2023/07/22 08:46:12;;;;;;;;;12.00;9.00;;;;;32.20;26.25;101344.00;5017853;28;46506;-45
2023/07/22 08:48:41;;;;;;;;;9.33;8.00;;;;;34.10;24.89;101342.56;5021484;28;45419;-47
2023/07/22 08:51:17;;;;;;;;;8.00;7.67;;;;;36.06;23.54;101340.59;5020709;28;45412;-45
2023/07/22 08:53:46;;;;;;;;;5.33;5.00;;;;;37.74;20.30;101332.19;5021486;28;45447;-45
2023/07/22 08:56:12;;;;;;;;;11.00;6.00;;;;;39.09;19.82;101338.22;5020009;28;45378;-46
2023/07/22 08:58:38;;;;;;;;;7.33;6.00;;;;;40.28;20.40;101340.59;5021297;28;45468;-47
2023/07/22 09:01:05;;;;;;;;;9.67;8.00;;;;;41.26;18.95;101325.47;5021525;28;45298;-47
2023/07/22 09:03:30;;;;;;;;;4.33;4.33;;;;;42.04;17.35;101329.44;5003648;28;45349;-48
2023/07/22 09:05:56;;;;;;;;;5.33;5.33;;;;;42.41;17.45;101331.19;5021205;28;46254;-47
2023/07/22 09:08:21;;;;;;;;;5.00;3.33;;;;;42.80;16.48;101324.19;5002341;28;74234;-47
2023/07/22 09:10:48;;;;;;;;;6.33;6.33;;;;;42.95;16.68;101323.34;5021303;28;45345;-45
2023/07/22 09:13:16;;;;;;;;;10.33;8.67;;;;;43.11;13.74;101324.97;5021335;28;45739;-45
2023/07/22 09:15:42;;;;;;;;;4.67;4.67;;;;;43.12;15.89;101325.84;5021040;28;46094;-45
2023/07/22 09:18:08;;;;;;;;;4.50;4.00;;;;;42.92;15.91;101319.13;5019261;28;59977;-48
2023/07/22 09:20:34;;;;;;;;;4.25;3.25;;;;;42.52;15.76;101309.66;5020077;28;45424;-48
2023/07/22 09:23:00;;;;;;;;;6.00;4.33;;;;;41.76;15.28;101316.75;5019774;28;45440;-45
2023/07/22 09:25:27;;;;;;;;;3.00;3.00;;;;;40.98;15.48;101321.16;5021059;28;46113;-46
2023/07/22 09:27:54;;;;;;;;;6.00;5.00;;;;;40.46;15.25;101323.50;5020875;28;45534;-49
2023/07/22 09:30:27;;;;;;;;;3.75;3.00;;;;;40.00;15.58;101323.00;5019850;28;45495;-47
2023/07/22 09:32:55;;;;;;;;;6.75;5.75;;;;;40.15;16.39;101317.63;5020895;28;45442;-46
2023/07/22 09:35:21;;;;;;;;;4.00;3.00;;;;;40.47;16.85;101314.03;5020757;28;45338;-50
2023/07/22 09:37:46;;;;;;;;;4.00;4.00;;;;;40.83;16.00;101313.47;5020774;28;45348;-46
2023/07/22 09:40:19;;;;;;;;;5.75;4.75;;;;;41.30;15.35;101303.47;5021092;28;45360;-45
2023/07/22 09:42:49;;;;;;;;;5.75;5.00;;;;;41.65;15.98;101304.75;5020876;28;45595;-46
2023/07/22 09:45:15;;;;;;;;;4.00;4.00;;;;;42.08;15.71;101301.78;5019614;28;45435;-50
2023/07/22 09:47:47;;;;;;;;;3.00;3.00;;;;;42.45;15.47;101292.31;5002936;28;45419;-46
2023/07/22 09:50:18;;;;;;;;;4.75;4.75;;;;;42.75;15.28;101291.50;5020778;28;45403;-45
2023/07/22 09:52:48;;;;;;;;;2.75;2.75;;;;;42.96;13.44;101300.66;5020503;28;45451;-46
2023/07/22 09:55:18;;;;;;;;;4.25;3.00;;;;;42.42;14.30;101295.69;5010740;28;46289;-47
2023/07/22 09:57:46;;;;;;;;;2.75;2.00;;;;;41.21;15.14;101297.56;5019825;28;45390;-46
2023/07/22 10:00:14;;;;;;;;;4.75;4.75;;;;;39.66;15.96;101296.22;5020662;28;45359;-45
2023/07/22 10:02:42;;;;;;;;;4.00;3.00;;;;;38.48;16.69;101295.31;5019100;28;45605;-44
2023/07/22 10:05:12;;;;;;;;;3.75;3.75;;;;;38.82;17.09;101300.03;5018922;28;47161;-45
2023/07/22 10:07:39;;;;;;;;;3.50;3.50;;;;;38.76;16.98;101303.81;5020154;28;45379;-44
2023/07/22 10:10:05;;;;;;;;;8.00;4.00;;;;;37.63;16.93;101300.63;5020368;28;45436;-45
2023/07/22 10:12:30;;;;;;;;;4.00;4.00;;;;;36.07;18.09;101311.81;5020238;28;45632;-44
2023/07/22 10:14:56;;;;;;;;;5.33;5.00;;;;;34.66;19.45;101300.63;5017905;28;75631;-44
2023/07/22 10:17:22;;;;;;;;;3.00;3.00;;;;;33.51;20.50;101300.38;5019101;28;45470;-45
2023/07/22 10:19:47;;;;;;;;;5.00;5.00;;;;;32.98;20.75;101296.69;5019657;28;61592;-45
2023/07/22 10:22:13;;;;;;;;;3.33;3.33;;;;;32.55;21.21;101299.00;5017756;28;68711;-45
2023/07/22 10:24:41;;;;;;;;;5.00;5.00;;;;;32.41;21.65;101298.13;5020351;28;46153;-44
2023/07/22 10:27:07;;;;;;;;;4.00;3.67;;;;;32.27;22.08;101291.78;5018687;28;45471;-45
2023/07/22 10:29:34;;;;;;;;;6.00;5.00;;;;;31.88;21.95;101294.19;5020375;28;45452;-44
2023/07/22 10:31:59;;;;;;;;;4.00;4.00;;;;;31.82;22.70;101289.50;5019495;28;45443;-45
2023/07/22 10:34:24;;;;;;;;;4.67;4.00;;;;;31.47;22.92;101287.66;5020004;28;55753;-43
2023/07/22 10:36:50;;;;;;;;;4.00;4.00;;;;;30.85;23.66;101283.84;5018408;28;52579;-47
2023/07/22 10:39:29;;;;;;;;;8.00;6.67;;;;;30.36;23.76;101280.00;5020263;28;45379;-45
2023/07/22 10:42:01;;;;;;;;;5.67;5.67;;;;;30.40;24.19;101285.97;5019233;28;45456;-46
2023/07/22 10:44:26;;;;;;;;;4.67;4.67;;;;;31.25;24.22;101280.53;5019909;28;46434;-44
2023/07/22 10:46:58;;;;;;;;;4.33;4.33;;;;;31.28;23.08;101275.50;5020028;28;45437;-48
2023/07/22 10:49:24;;;;;;;;;4.33;4.33;;;;;30.97;23.37;101275.91;5019775;28;45403;-47
2023/07/22 10:51:51;;;;;;;;;6.00;5.33;;;;;30.63;23.64;101272.06;5018384;28;45374;-46
2023/07/22 10:54:35;;;;;;;;;6.00;6.00;;;;;30.16;23.21;101269.69;5019496;28;47316;-45
2023/07/22 10:57:24;;;;;;;;;6.00;4.00;;;;;29.82;23.94;101267.63;5017900;28;45419;-46
2023/07/22 10:59:50;;;;;;;;;5.00;5.00;;;;;29.65;24.05;101273.31;5019920;28;45273;-45
2023/07/22 11:02:29;;;;;;;;;3.67;3.33;;;;;29.50;23.95;101256.91;5019498;28;45407;-46
2023/07/22 11:04:59;;;;;;;;;5.33;5.00;;;;;29.65;23.68;101251.38;5017919;28;46185;-47
2023/07/22 11:07:43;;;;;;;;;1.75;1.75;;;;;30.34;23.71;101254.69;5017770;28;45332;-46
2023/07/22 11:10:28;;;;;;;;;1.00;1.00;;;;;30.89;22.60;101259.59;5019747;28;45344;-46
2023/07/22 11:12:54;;;;;;;;;4.00;4.00;;;;;31.45;23.05;101247.69;5019337;28;70397;-47
2023/07/22 11:15:19;;;;;;;;;2.67;2.00;;;;;32.30;21.64;101241.81;5022193;28;69791;-47
2023/07/22 11:17:45;;;;;;;;;2.00;2.00;;;;;32.62;21.29;101247.50;5022118;28;45862;-45